sensor_id;sensor_type;location;lat;lon;timestamp;P1;durP1;ratioP1;P2;durP2;ratioP2
16689;SDS011;8458;52.220;9.884;2022-07-29T00:01:13;2.23;;;0.63;;
16689;SDS011;8458;52.220;9.884;2022-07-29T00:03:40;1.87;;;0.70;;
16689;SDS011;8458;52.220;9.884;2022-07-29T00:06:06;1.03;;;0.57;;
16689;SDS011;8458;52.220;9.884;2022-07-29T00:08:33;1.47;;;0.60;;
16689;SDS011;8458;52.220;9.884;2022-07-29T00:11:00;1.83;;;0.70;;
16689;SDS011;8458;52.220;9.884;2022-07-29T00:13:26;1.27;;;0.70;;
16689;SDS011;8458;52.220;9.884;2022-07-29T00:15:54;2.03;;;0.80;;
16689;SDS011;8458;52.220;9.884;2022-07-29T00:18:21;1.73;;;0.80;;
16689;SDS011;8458;52.220;9.884;2022-07-29T00:20:47;1.40;;;0.67;;
16689;SDS011;8458;52.220;9.884;2022-07-29T00:23:14;1.07;;;0.70;;
16689;SDS011;8458;52.220;9.884;2022-07-29T00:25:40;0.70;;;0.57;;
16689;SDS011;8458;52.220;9.884;2022-07-29T00:28:07;1.37;;;0.83;;
16689;SDS011;8458;52.220;9.884;2022-07-29T00:30:33;1.37;;;0.53;;
16689;SDS011;8458;52.220;9.884;2022-07-29T00:33:01;1.27;;;0.70;;
16689;SDS011;8458;52.220;9.884;2022-07-29T00:35:27;0.87;;;0.43;;
16689;SDS011;8458;52.220;9.884;2022-07-29T00:38:08;1.87;;;0.70;;
16689;SDS011;8458;52.220;9.884;2022-07-29T00:40:35;3.73;;;0.70;;
16689;SDS011;8458;52.220;9.884;2022-07-29T00:43:01;2.20;;;0.70;;
16689;SDS011;8458;52.220;9.884;2022-07-29T00:45:28;1.73;;;0.53;;
16689;SDS011;8458;52.220;9.884;2022-07-29T00:47:54;4.00;;;0.70;;
16689;SDS011;8458;52.220;9.884;2022-07-29T00:50:23;1.43;;;0.80;;
16689;SDS011;8458;52.220;9.884;2022-07-29T00:52:49;1.17;;;0.80;;
16689;SDS011;8458;52.220;9.884;2022-07-29T00:55:17;1.57;;;0.80;;
16689;SDS011;8458;52.220;9.884;2022-07-29T00:57:44;0.73;;;0.67;;
16689;SDS011;8458;52.220;9.884;2022-07-29T01:00:12;2.10;;;0.70;;
16689;SDS011;8458;52.220;9.884;2022-07-29T01:02:42;1.43;;;0.90;;
16689;SDS011;8458;52.220;9.884;2022-07-29T01:05:08;0.70;;;0.60;;
16689;SDS011;8458;52.220;9.884;2022-07-29T01:07:38;2.13;;;0.77;;
16689;SDS011;8458;52.220;9.884;2022-07-29T01:10:06;2.00;;;0.60;;
16689;SDS011;8458;52.220;9.884;2022-07-29T01:12:34;5.00;;;0.60;;
16689;SDS011;8458;52.220;9.884;2022-07-29T01:15:03;1.50;;;0.70;;
16689;SDS011;8458;52.220;9.884;2022-07-29T01:17:33;0.47;;;0.47;;
16689;SDS011;8458;52.220;9.884;2022-07-29T01:20:03;0.80;;;0.60;;
16689;SDS011;8458;52.220;9.884;2022-07-29T01:22:37;1.60;;;0.60;;
16689;SDS011;8458;52.220;9.884;2022-07-29T01:25:30;0.97;;;0.73;;
16689;SDS011;8458;52.220;9.884;2022-07-29T01:31:09;1.17;;;0.60;;
16689;SDS011;8458;52.220;9.884;2022-07-29T01:33:38;1.57;;;0.80;;
16689;SDS011;8458;52.220;9.884;2022-07-29T01:36:18;1.73;;;0.60;;
16689;SDS011;8458;52.220;9.884;2022-07-29T01:38:49;0.80;;;0.63;;
16689;SDS011;8458;52.220;9.884;2022-07-29T01:41:20;1.07;;;0.63;;
16689;SDS011;8458;52.220;9.884;2022-07-29T01:43:49;1.00;;;0.60;;
16689;SDS011;8458;52.220;9.884;2022-07-29T01:46:22;1.10;;;0.60;;
16689;SDS011;8458;52.220;9.884;2022-07-29T01:48:55;1.37;;;0.77;;
16689;SDS011;8458;52.220;9.884;2022-07-29T01:51:28;2.03;;;0.63;;
16689;SDS011;8458;52.220;9.884;2022-07-29T01:53:58;2.30;;;0.80;;
16689;SDS011;8458;52.220;9.884;2022-07-29T01:56:30;2.03;;;0.80;;
16689;SDS011;8458;52.220;9.884;2022-07-29T01:58:58;1.80;;;0.60;;
16689;SDS011;8458;52.220;9.884;2022-07-29T02:01:28;2.03;;;0.80;;
16689;SDS011;8458;52.220;9.884;2022-07-29T02:03:57;1.13;;;0.70;;
16689;SDS011;8458;52.220;9.884;2022-07-29T02:06:27;1.50;;;0.60;;
16689;SDS011;8458;52.220;9.884;2022-07-29T02:08:57;0.73;;;0.63;;
16689;SDS011;8458;52.220;9.884;2022-07-29T02:11:25;1.17;;;0.83;;
16689;SDS011;8458;52.220;9.884;2022-07-29T02:13:52;1.07;;;0.60;;
16689;SDS011;8458;52.220;9.884;2022-07-29T02:16:22;1.43;;;0.70;;
16689;SDS011;8458;52.220;9.884;2022-07-29T02:18:52;3.30;;;0.73;;
16689;SDS011;8458;52.220;9.884;2022-07-29T02:21:21;1.63;;;0.80;;
16689;SDS011;8458;52.220;9.884;2022-07-29T02:23:50;1.73;;;0.60;;
16689;SDS011;8458;52.220;9.884;2022-07-29T02:26:19;2.57;;;0.60;;
16689;SDS011;8458;52.220;9.884;2022-07-29T02:28:49;0.50;;;0.50;;
16689;SDS011;8458;52.220;9.884;2022-07-29T02:31:18;2.90;;;0.70;;
16689;SDS011;8458;52.220;9.884;2022-07-29T02:33:47;1.33;;;0.60;;
16689;SDS011;8458;52.220;9.884;2022-07-29T02:36:16;1.60;;;0.67;;
16689;SDS011;8458;52.220;9.884;2022-07-29T02:38:43;2.03;;;0.73;;
16689;SDS011;8458;52.220;9.884;2022-07-29T02:41:20;0.80;;;0.70;;
16689;SDS011;8458;52.220;9.884;2022-07-29T02:43:50;2.03;;;0.90;;
16689;SDS011;8458;52.220;9.884;2022-07-29T02:46:24;1.70;;;0.80;;
16689;SDS011;8458;52.220;9.884;2022-07-29T02:48:55;1.50;;;0.80;;
16689;SDS011;8458;52.220;9.884;2022-07-29T02:51:28;1.60;;;0.70;;
16689;SDS011;8458;52.220;9.884;2022-07-29T02:54:03;1.30;;;0.70;;
16689;SDS011;8458;52.220;9.884;2022-07-29T02:56:34;1.57;;;0.70;;
16689;SDS011;8458;52.220;9.884;2022-07-29T02:59:03;3.30;;;0.80;;
16689;SDS011;8458;52.220;9.884;2022-07-29T03:01:33;1.40;;;0.60;;
16689;SDS011;8458;52.220;9.884;2022-07-29T03:04:04;1.40;;;0.60;;
16689;SDS011;8458;52.220;9.884;2022-07-29T03:06:33;0.60;;;0.53;;
16689;SDS011;8458;52.220;9.884;2022-07-29T03:09:00;0.87;;;0.60;;
16689;SDS011;8458;52.220;9.884;2022-07-29T03:11:27;1.03;;;0.70;;
16689;SDS011;8458;52.220;9.884;2022-07-29T03:13:54;1.20;;;0.83;;
16689;SDS011;8458;52.220;9.884;2022-07-29T03:16:22;0.70;;;0.70;;
16689;SDS011;8458;52.220;9.884;2022-07-29T03:18:49;1.40;;;1.00;;
16689;SDS011;8458;52.220;9.884;2022-07-29T03:21:16;1.90;;;0.77;;
16689;SDS011;8458;52.220;9.884;2022-07-29T03:23:44;1.07;;;0.70;;
16689;SDS011;8458;52.220;9.884;2022-07-29T03:26:11;0.80;;;0.73;;
16689;SDS011;8458;52.220;9.884;2022-07-29T03:28:38;1.90;;;0.93;;
16689;SDS011;8458;52.220;9.884;2022-07-29T03:31:04;2.23;;;0.70;;
16689;SDS011;8458;52.220;9.884;2022-07-29T03:33:31;1.50;;;0.80;;
16689;SDS011;8458;52.220;9.884;2022-07-29T03:35:57;1.70;;;0.60;;
16689;SDS011;8458;52.220;9.884;2022-07-29T03:38:25;0.90;;;0.60;;
16689;SDS011;8458;52.220;9.884;2022-07-29T03:40:56;1.33;;;0.70;;
16689;SDS011;8458;52.220;9.884;2022-07-29T03:43:26;1.17;;;0.70;;
16689;SDS011;8458;52.220;9.884;2022-07-29T03:45:57;1.07;;;0.50;;
16689;SDS011;8458;52.220;9.884;2022-07-29T03:48:25;1.10;;;0.73;;
16689;SDS011;8458;52.220;9.884;2022-07-29T03:50:54;1.30;;;0.80;;
16689;SDS011;8458;52.220;9.884;2022-07-29T03:53:21;1.10;;;0.70;;
16689;SDS011;8458;52.220;9.884;2022-07-29T03:55:50;1.73;;;0.80;;
16689;SDS011;8458;52.220;9.884;2022-07-29T03:58:21;1.70;;;0.90;;
16689;SDS011;8458;52.220;9.884;2022-07-29T04:00:50;1.57;;;0.93;;
16689;SDS011;8458;52.220;9.884;2022-07-29T04:03:16;1.40;;;0.60;;
16689;SDS011;8458;52.220;9.884;2022-07-29T04:05:43;1.67;;;1.00;;
16689;SDS011;8458;52.220;9.884;2022-07-29T04:08:10;1.73;;;0.80;;
16689;SDS011;8458;52.220;9.884;2022-07-29T04:10:37;1.47;;;0.70;;
16689;SDS011;8458;52.220;9.884;2022-07-29T04:13:04;1.43;;;0.70;;
16689;SDS011;8458;52.220;9.884;2022-07-29T04:15:31;1.60;;;0.60;;
16689;SDS011;8458;52.220;9.884;2022-07-29T04:17:58;4.00;;;1.43;;
16689;SDS011;8458;52.220;9.884;2022-07-29T04:20:25;8.43;;;1.73;;
16689;SDS011;8458;52.220;9.884;2022-07-29T04:22:51;6.97;;;1.40;;
16689;SDS011;8458;52.220;9.884;2022-07-29T04:25:17;5.23;;;1.40;;
16689;SDS011;8458;52.220;9.884;2022-07-29T04:27:44;4.97;;;1.10;;
16689;SDS011;8458;52.220;9.884;2022-07-29T04:30:38;3.47;;;0.90;;
16689;SDS011;8458;52.220;9.884;2022-07-29T04:33:06;3.67;;;0.93;;
16689;SDS011;8458;52.220;9.884;2022-07-29T04:35:34;2.67;;;0.80;;
16689;SDS011;8458;52.220;9.884;2022-07-29T04:38:02;2.67;;;1.10;;
16689;SDS011;8458;52.220;9.884;2022-07-29T04:40:29;1.43;;;0.70;;
16689;SDS011;8458;52.220;9.884;2022-07-29T04:42:58;2.27;;;0.70;;
16689;SDS011;8458;52.220;9.884;2022-07-29T04:45:24;1.90;;;0.80;;
16689;SDS011;8458;52.220;9.884;2022-07-29T04:47:53;1.13;;;0.80;;
16689;SDS011;8458;52.220;9.884;2022-07-29T04:50:19;1.43;;;0.70;;
16689;SDS011;8458;52.220;9.884;2022-07-29T04:52:46;1.10;;;0.70;;
16689;SDS011;8458;52.220;9.884;2022-07-29T04:55:12;2.20;;;0.93;;
16689;SDS011;8458;52.220;9.884;2022-07-29T04:57:39;3.57;;;1.13;;
16689;SDS011;8458;52.220;9.884;2022-07-29T05:00:06;16.97;;;1.47;;
16689;SDS011;8458;52.220;9.884;2022-07-29T05:02:33;13.00;;;1.70;;
16689;SDS011;8458;52.220;9.884;2022-07-29T05:05:01;9.70;;;1.67;;
16689;SDS011;8458;52.220;9.884;2022-07-29T05:07:28;17.30;;;2.07;;
16689;SDS011;8458;52.220;9.884;2022-07-29T05:09:54;4.80;;;1.63;;
16689;SDS011;8458;52.220;9.884;2022-07-29T05:12:21;3.83;;;1.20;;
16689;SDS011;8458;52.220;9.884;2022-07-29T05:14:48;3.20;;;0.87;;
16689;SDS011;8458;52.220;9.884;2022-07-29T05:17:15;4.97;;;1.43;;
16689;SDS011;8458;52.220;9.884;2022-07-29T05:19:41;9.53;;;1.80;;
16689;SDS011;8458;52.220;9.884;2022-07-29T05:22:09;4.03;;;1.20;;
16689;SDS011;8458;52.220;9.884;2022-07-29T05:24:35;4.13;;;1.10;;
16689;SDS011;8458;52.220;9.884;2022-07-29T05:27:02;5.90;;;1.13;;
16689;SDS011;8458;52.220;9.884;2022-07-29T05:29:29;3.70;;;1.10;;
16689;SDS011;8458;52.220;9.884;2022-07-29T05:31:56;1.23;;;0.97;;
16689;SDS011;8458;52.220;9.884;2022-07-29T05:34:22;5.90;;;1.63;;
16689;SDS011;8458;52.220;9.884;2022-07-29T05:36:50;7.03;;;1.70;;
16689;SDS011;8458;52.220;9.884;2022-07-29T05:39:17;5.93;;;1.23;;
16689;SDS011;8458;52.220;9.884;2022-07-29T05:41:44;5.13;;;1.30;;
16689;SDS011;8458;52.220;9.884;2022-07-29T05:44:11;2.43;;;1.20;;
16689;SDS011;8458;52.220;9.884;2022-07-29T05:46:38;3.97;;;1.00;;
16689;SDS011;8458;52.220;9.884;2022-07-29T05:49:04;3.37;;;1.57;;
16689;SDS011;8458;52.220;9.884;2022-07-29T05:51:31;2.10;;;0.80;;
16689;SDS011;8458;52.220;9.884;2022-07-29T05:53:58;3.00;;;1.10;;
16689;SDS011;8458;52.220;9.884;2022-07-29T05:56:26;2.57;;;1.00;;
16689;SDS011;8458;52.220;9.884;2022-07-29T05:58:53;2.77;;;0.90;;
16689;SDS011;8458;52.220;9.884;2022-07-29T06:01:20;2.30;;;0.90;;
16689;SDS011;8458;52.220;9.884;2022-07-29T06:03:47;4.93;;;0.90;;
16689;SDS011;8458;52.220;9.884;2022-07-29T06:06:13;3.63;;;1.20;;
16689;SDS011;8458;52.220;9.884;2022-07-29T06:08:40;1.90;;;1.00;;
16689;SDS011;8458;52.220;9.884;2022-07-29T06:11:07;2.30;;;1.00;;
16689;SDS011;8458;52.220;9.884;2022-07-29T06:13:36;1.43;;;1.03;;
16689;SDS011;8458;52.220;9.884;2022-07-29T06:16:02;1.67;;;1.10;;
16689;SDS011;8458;52.220;9.884;2022-07-29T06:18:29;1.83;;;0.90;;
16689;SDS011;8458;52.220;9.884;2022-07-29T06:20:57;2.00;;;1.17;;
16689;SDS011;8458;52.220;9.884;2022-07-29T06:23:23;2.27;;;1.10;;
16689;SDS011;8458;52.220;9.884;2022-07-29T06:25:50;3.47;;;1.00;;
16689;SDS011;8458;52.220;9.884;2022-07-29T06:28:16;2.10;;;0.90;;
16689;SDS011;8458;52.220;9.884;2022-07-29T06:30:44;1.93;;;0.83;;
16689;SDS011;8458;52.220;9.884;2022-07-29T06:33:15;1.80;;;1.00;;
16689;SDS011;8458;52.220;9.884;2022-07-29T06:35:42;3.70;;;1.13;;
16689;SDS011;8458;52.220;9.884;2022-07-29T06:38:09;2.93;;;1.07;;
16689;SDS011;8458;52.220;9.884;2022-07-29T06:40:40;1.80;;;1.07;;
16689;SDS011;8458;52.220;9.884;2022-07-29T06:43:26;1.17;;;0.70;;
16689;SDS011;8458;52.220;9.884;2022-07-29T06:45:57;2.77;;;1.00;;
16689;SDS011;8458;52.220;9.884;2022-07-29T06:48:26;2.37;;;1.20;;
16689;SDS011;8458;52.220;9.884;2022-07-29T06:50:53;2.83;;;1.17;;
16689;SDS011;8458;52.220;9.884;2022-07-29T06:53:20;1.50;;;1.00;;
16689;SDS011;8458;52.220;9.884;2022-07-29T06:55:46;3.30;;;1.17;;
16689;SDS011;8458;52.220;9.884;2022-07-29T06:58:13;4.50;;;1.13;;
16689;SDS011;8458;52.220;9.884;2022-07-29T07:00:41;2.03;;;1.10;;
16689;SDS011;8458;52.220;9.884;2022-07-29T07:03:09;1.67;;;0.83;;
16689;SDS011;8458;52.220;9.884;2022-07-29T07:05:35;2.10;;;1.00;;
16689;SDS011;8458;52.220;9.884;2022-07-29T07:08:02;2.37;;;1.13;;
16689;SDS011;8458;52.220;9.884;2022-07-29T07:10:29;3.60;;;1.10;;
16689;SDS011;8458;52.220;9.884;2022-07-29T07:12:56;1.40;;;0.97;;
16689;SDS011;8458;52.220;9.884;2022-07-29T07:15:22;2.67;;;1.30;;
16689;SDS011;8458;52.220;9.884;2022-07-29T07:17:49;4.00;;;1.30;;
16689;SDS011;8458;52.220;9.884;2022-07-29T07:20:17;1.57;;;1.10;;
16689;SDS011;8458;52.220;9.884;2022-07-29T07:22:43;1.23;;;1.00;;
16689;SDS011;8458;52.220;9.884;2022-07-29T07:25:10;2.17;;;1.10;;
16689;SDS011;8458;52.220;9.884;2022-07-29T07:27:37;4.37;;;1.40;;
16689;SDS011;8458;52.220;9.884;2022-07-29T07:30:05;2.43;;;1.20;;
16689;SDS011;8458;52.220;9.884;2022-07-29T07:32:33;2.10;;;1.27;;
16689;SDS011;8458;52.220;9.884;2022-07-29T07:35:00;4.13;;;1.57;;
16689;SDS011;8458;52.220;9.884;2022-07-29T07:37:28;2.57;;;1.13;;
16689;SDS011;8458;52.220;9.884;2022-07-29T07:39:54;2.03;;;1.40;;
16689;SDS011;8458;52.220;9.884;2022-07-29T07:42:21;2.27;;;1.20;;
16689;SDS011;8458;52.220;9.884;2022-07-29T07:44:47;2.00;;;1.13;;
16689;SDS011;8458;52.220;9.884;2022-07-29T07:47:14;2.10;;;1.37;;
16689;SDS011;8458;52.220;9.884;2022-07-29T07:49:44;2.90;;;1.10;;
16689;SDS011;8458;52.220;9.884;2022-07-29T07:52:11;3.67;;;1.20;;
16689;SDS011;8458;52.220;9.884;2022-07-29T07:54:39;2.87;;;1.10;;
16689;SDS011;8458;52.220;9.884;2022-07-29T07:57:05;2.67;;;1.27;;
16689;SDS011;8458;52.220;9.884;2022-07-29T07:59:32;2.10;;;1.30;;
16689;SDS011;8458;52.220;9.884;2022-07-29T08:01:58;2.00;;;1.40;;
16689;SDS011;8458;52.220;9.884;2022-07-29T08:04:26;2.60;;;1.20;;
16689;SDS011;8458;52.220;9.884;2022-07-29T08:06:52;2.13;;;1.00;;
16689;SDS011;8458;52.220;9.884;2022-07-29T08:09:20;3.07;;;1.10;;
16689;SDS011;8458;52.220;9.884;2022-07-29T08:11:48;2.70;;;1.47;;
16689;SDS011;8458;52.220;9.884;2022-07-29T08:14:14;3.10;;;1.30;;
16689;SDS011;8458;52.220;9.884;2022-07-29T08:16:41;3.70;;;1.30;;
16689;SDS011;8458;52.220;9.884;2022-07-29T08:19:08;2.80;;;1.10;;
16689;SDS011;8458;52.220;9.884;2022-07-29T08:21:34;2.33;;;1.40;;
16689;SDS011;8458;52.220;9.884;2022-07-29T08:24:01;2.07;;;1.30;;
16689;SDS011;8458;52.220;9.884;2022-07-29T08:26:42;3.27;;;1.30;;
16689;SDS011;8458;52.220;9.884;2022-07-29T08:29:11;3.07;;;1.10;;
16689;SDS011;8458;52.220;9.884;2022-07-29T08:31:38;2.43;;;1.40;;
16689;SDS011;8458;52.220;9.884;2022-07-29T08:34:05;1.30;;;1.20;;
16689;SDS011;8458;52.220;9.884;2022-07-29T08:36:32;3.30;;;1.30;;
16689;SDS011;8458;52.220;9.884;2022-07-29T08:38:59;2.23;;;1.50;;
16689;SDS011;8458;52.220;9.884;2022-07-29T08:41:26;3.10;;;1.40;;
16689;SDS011;8458;52.220;9.884;2022-07-29T08:43:53;1.93;;;1.73;;
16689;SDS011;8458;52.220;9.884;2022-07-29T08:46:21;3.37;;;1.30;;
16689;SDS011;8458;52.220;9.884;2022-07-29T08:48:50;2.73;;;1.10;;
16689;SDS011;8458;52.220;9.884;2022-07-29T08:51:17;4.17;;;1.50;;
16689;SDS011;8458;52.220;9.884;2022-07-29T08:53:46;2.30;;;1.17;;
16689;SDS011;8458;52.220;9.884;2022-07-29T08:56:14;2.13;;;1.30;;
16689;SDS011;8458;52.220;9.884;2022-07-29T08:58:41;1.70;;;1.00;;
16689;SDS011;8458;52.220;9.884;2022-07-29T09:01:08;2.77;;;1.20;;
16689;SDS011;8458;52.220;9.884;2022-07-29T09:03:37;4.33;;;1.43;;
16689;SDS011;8458;52.220;9.884;2022-07-29T09:06:06;3.67;;;1.20;;
16689;SDS011;8458;52.220;9.884;2022-07-29T09:08:33;3.97;;;1.40;;
16689;SDS011;8458;52.220;9.884;2022-07-29T09:11:00;2.83;;;1.30;;
16689;SDS011;8458;52.220;9.884;2022-07-29T09:13:28;2.53;;;1.50;;
16689;SDS011;8458;52.220;9.884;2022-07-29T09:15:54;3.20;;;1.63;;
16689;SDS011;8458;52.220;9.884;2022-07-29T09:18:32;2.30;;;1.27;;
16689;SDS011;8458;52.220;9.884;2022-07-29T09:21:01;3.00;;;1.30;;
16689;SDS011;8458;52.220;9.884;2022-07-29T09:23:59;2.43;;;1.20;;
16689;SDS011;8458;52.220;9.884;2022-07-29T09:26:27;3.57;;;1.20;;
16689;SDS011;8458;52.220;9.884;2022-07-29T09:28:54;3.37;;;1.40;;
16689;SDS011;8458;52.220;9.884;2022-07-29T09:31:22;3.23;;;1.63;;
16689;SDS011;8458;52.220;9.884;2022-07-29T09:33:58;2.20;;;1.30;;
16689;SDS011;8458;52.220;9.884;2022-07-29T09:36:26;2.40;;;1.17;;
16689;SDS011;8458;52.220;9.884;2022-07-29T09:38:57;1.67;;;1.20;;
16689;SDS011;8458;52.220;9.884;2022-07-29T09:41:24;6.03;;;1.83;;
16689;SDS011;8458;52.220;9.884;2022-07-29T09:43:55;2.70;;;1.23;;
16689;SDS011;8458;52.220;9.884;2022-07-29T09:46:22;3.17;;;1.47;;
16689;SDS011;8458;52.220;9.884;2022-07-29T09:49:05;2.27;;;1.10;;
16689;SDS011;8458;52.220;9.884;2022-07-29T09:51:33;3.13;;;1.80;;
16689;SDS011;8458;52.220;9.884;2022-07-29T09:54:00;1.80;;;1.50;;
16689;SDS011;8458;52.220;9.884;2022-07-29T09:56:38;3.40;;;1.50;;
16689;SDS011;8458;52.220;9.884;2022-07-29T09:59:06;5.27;;;1.33;;
16689;SDS011;8458;52.220;9.884;2022-07-29T10:01:33;2.30;;;1.13;;
16689;SDS011;8458;52.220;9.884;2022-07-29T10:04:01;16.57;;;1.50;;
16689;SDS011;8458;52.220;9.884;2022-07-29T10:06:28;2.77;;;1.50;;
16689;SDS011;8458;52.220;9.884;2022-07-29T10:09:02;3.07;;;1.43;;
16689;SDS011;8458;52.220;9.884;2022-07-29T10:11:33;4.97;;;1.80;;
16689;SDS011;8458;52.220;9.884;2022-07-29T10:14:01;3.13;;;1.50;;
16689;SDS011;8458;52.220;9.884;2022-07-29T10:16:28;2.73;;;1.60;;
16689;SDS011;8458;52.220;9.884;2022-07-29T10:18:57;2.20;;;1.57;;
16689;SDS011;8458;52.220;9.884;2022-07-29T10:21:25;3.30;;;1.50;;
16689;SDS011;8458;52.220;9.884;2022-07-29T10:23:52;3.30;;;1.93;;
16689;SDS011;8458;52.220;9.884;2022-07-29T10:26:20;3.03;;;1.30;;
16689;SDS011;8458;52.220;9.884;2022-07-29T10:28:47;5.57;;;1.50;;
16689;SDS011;8458;52.220;9.884;2022-07-29T10:31:15;2.97;;;1.50;;
16689;SDS011;8458;52.220;9.884;2022-07-29T10:33:54;3.23;;;1.60;;
16689;SDS011;8458;52.220;9.884;2022-07-29T10:36:40;2.00;;;1.50;;
16689;SDS011;8458;52.220;9.884;2022-07-29T10:39:19;6.77;;;1.60;;
16689;SDS011;8458;52.220;9.884;2022-07-29T10:42:02;2.50;;;1.40;;
16689;SDS011;8458;52.220;9.884;2022-07-29T10:44:39;3.53;;;1.70;;
16689;SDS011;8458;52.220;9.884;2022-07-29T10:47:07;2.73;;;1.27;;
16689;SDS011;8458;52.220;9.884;2022-07-29T10:49:33;2.90;;;1.40;;
16689;SDS011;8458;52.220;9.884;2022-07-29T10:52:01;2.30;;;1.10;;
16689;SDS011;8458;52.220;9.884;2022-07-29T10:54:37;2.93;;;1.37;;
16689;SDS011;8458;52.220;9.884;2022-07-29T11:02:52;4.07;;;1.53;;
16689;SDS011;8458;52.220;9.884;2022-07-29T11:05:21;2.10;;;1.40;;
16689;SDS011;8458;52.220;9.884;2022-07-29T11:10:46;6.10;;;1.70;;
16689;SDS011;8458;52.220;9.884;2022-07-29T11:13:23;2.47;;;1.43;;
16689;SDS011;8458;52.220;9.884;2022-07-29T11:16:18;2.97;;;1.40;;
16689;SDS011;8458;52.220;9.884;2022-07-29T11:21:48;1.90;;;1.40;;
16689;SDS011;8458;52.220;9.884;2022-07-29T11:24:17;3.13;;;1.40;;
16689;SDS011;8458;52.220;9.884;2022-07-29T11:26:45;3.73;;;1.70;;
16689;SDS011;8458;52.220;9.884;2022-07-29T11:29:34;2.40;;;1.37;;
16689;SDS011;8458;52.220;9.884;2022-07-29T11:32:08;2.43;;;1.40;;
16689;SDS011;8458;52.220;9.884;2022-07-29T11:34:36;2.37;;;1.30;;
16689;SDS011;8458;52.220;9.884;2022-07-29T11:37:15;2.00;;;1.20;;
16689;SDS011;8458;52.220;9.884;2022-07-29T11:42:39;1.50;;;1.40;;
16689;SDS011;8458;52.220;9.884;2022-07-29T11:45:08;1.93;;;1.67;;
16689;SDS011;8458;52.220;9.884;2022-07-29T11:47:38;1.77;;;1.50;;
16689;SDS011;8458;52.220;9.884;2022-07-29T11:50:08;3.17;;;1.63;;
16689;SDS011;8458;52.220;9.884;2022-07-29T11:52:37;3.23;;;1.47;;
16689;SDS011;8458;52.220;9.884;2022-07-29T11:55:10;1.97;;;1.23;;
16689;SDS011;8458;52.220;9.884;2022-07-29T11:57:44;2.73;;;1.30;;
16689;SDS011;8458;52.220;9.884;2022-07-29T12:00:20;3.03;;;1.43;;
16689;SDS011;8458;52.220;9.884;2022-07-29T12:02:48;2.77;;;1.43;;
16689;SDS011;8458;52.220;9.884;2022-07-29T12:05:15;1.67;;;1.23;;
16689;SDS011;8458;52.220;9.884;2022-07-29T12:07:42;2.67;;;1.50;;
16689;SDS011;8458;52.220;9.884;2022-07-29T12:10:09;1.80;;;1.20;;
16689;SDS011;8458;52.220;9.884;2022-07-29T12:12:36;2.00;;;1.43;;
16689;SDS011;8458;52.220;9.884;2022-07-29T12:15:10;2.97;;;1.50;;
16689;SDS011;8458;52.220;9.884;2022-07-29T12:17:45;1.40;;;1.20;;
16689;SDS011;8458;52.220;9.884;2022-07-29T12:20:12;3.57;;;1.50;;
16689;SDS011;8458;52.220;9.884;2022-07-29T12:22:42;2.77;;;1.47;;
16689;SDS011;8458;52.220;9.884;2022-07-29T12:25:10;2.40;;;1.60;;
16689;SDS011;8458;52.220;9.884;2022-07-29T12:27:40;2.93;;;1.33;;
16689;SDS011;8458;52.220;9.884;2022-07-29T12:30:09;3.33;;;1.50;;
16689;SDS011;8458;52.220;9.884;2022-07-29T12:32:39;2.53;;;1.30;;
16689;SDS011;8458;52.220;9.884;2022-07-29T12:35:07;3.00;;;1.53;;
16689;SDS011;8458;52.220;9.884;2022-07-29T12:37:38;3.23;;;1.63;;
16689;SDS011;8458;52.220;9.884;2022-07-29T12:40:07;2.92;;;1.60;;
16689;SDS011;8458;52.220;9.884;2022-07-29T12:42:35;2.90;;;1.70;;
16689;SDS011;8458;52.220;9.884;2022-07-29T12:45:02;3.30;;;1.42;;
16689;SDS011;8458;52.220;9.884;2022-07-29T12:47:30;2.37;;;1.40;;
16689;SDS011;8458;52.220;9.884;2022-07-29T12:50:09;2.28;;;1.83;;
16689;SDS011;8458;52.220;9.884;2022-07-29T12:52:36;3.10;;;1.55;;
16689;SDS011;8458;52.220;9.884;2022-07-29T12:55:03;3.40;;;1.63;;
16689;SDS011;8458;52.220;9.884;2022-07-29T12:57:30;3.17;;;1.50;;
16689;SDS011;8458;52.220;9.884;2022-07-29T13:00:02;2.93;;;1.60;;
16689;SDS011;8458;52.220;9.884;2022-07-29T13:02:32;3.38;;;1.60;;
16689;SDS011;8458;52.220;9.884;2022-07-29T13:05:00;3.20;;;1.90;;
16689;SDS011;8458;52.220;9.884;2022-07-29T13:07:30;2.47;;;1.70;;
16689;SDS011;8458;52.220;9.884;2022-07-29T13:10:09;2.88;;;1.60;;
16689;SDS011;8458;52.220;9.884;2022-07-29T13:12:38;2.92;;;1.70;;
16689;SDS011;8458;52.220;9.884;2022-07-29T13:15:12;2.58;;;1.70;;
16689;SDS011;8458;52.220;9.884;2022-07-29T13:17:40;2.90;;;1.52;;
16689;SDS011;8458;52.220;9.884;2022-07-29T13:20:08;2.38;;;1.52;;
16689;SDS011;8458;52.220;9.884;2022-07-29T13:22:39;1.83;;;1.50;;
16689;SDS011;8458;52.220;9.884;2022-07-29T13:25:07;2.38;;;1.70;;
16689;SDS011;8458;52.220;9.884;2022-07-29T13:27:35;2.45;;;1.70;;
16689;SDS011;8458;52.220;9.884;2022-07-29T13:30:04;2.88;;;1.45;;
16689;SDS011;8458;52.220;9.884;2022-07-29T13:32:32;2.80;;;2.07;;
16689;SDS011;8458;52.220;9.884;2022-07-29T13:35:00;2.45;;;2.10;;
16689;SDS011;8458;52.220;9.884;2022-07-29T13:37:29;3.30;;;1.40;;
16689;SDS011;8458;52.220;9.884;2022-07-29T13:39:59;2.83;;;1.60;;
16689;SDS011;8458;52.220;9.884;2022-07-29T13:42:27;1.88;;;1.75;;
16689;SDS011;8458;52.220;9.884;2022-07-29T13:44:54;2.30;;;1.70;;
16689;SDS011;8458;52.220;9.884;2022-07-29T13:47:21;2.60;;;1.90;;
16689;SDS011;8458;52.220;9.884;2022-07-29T13:49:48;3.30;;;1.80;;
16689;SDS011;8458;52.220;9.884;2022-07-29T13:52:15;1.95;;;1.70;;
16689;SDS011;8458;52.220;9.884;2022-07-29T13:54:41;2.53;;;1.70;;
16689;SDS011;8458;52.220;9.884;2022-07-29T13:57:10;2.40;;;1.67;;
16689;SDS011;8458;52.220;9.884;2022-07-29T13:59:37;1.90;;;1.80;;
16689;SDS011;8458;52.220;9.884;2022-07-29T14:02:04;1.95;;;1.67;;
16689;SDS011;8458;52.220;9.884;2022-07-29T14:04:30;3.13;;;1.85;;
16689;SDS011;8458;52.220;9.884;2022-07-29T14:06:57;2.83;;;1.63;;
16689;SDS011;8458;52.220;9.884;2022-07-29T14:09:23;3.50;;;1.73;;
16689;SDS011;8458;52.220;9.884;2022-07-29T14:11:50;4.20;;;2.15;;
16689;SDS011;8458;52.220;9.884;2022-07-29T14:14:19;4.05;;;1.88;;
16689;SDS011;8458;52.220;9.884;2022-07-29T14:16:46;2.67;;;1.88;;
16689;SDS011;8458;52.220;9.884;2022-07-29T14:19:12;2.60;;;2.40;;
16689;SDS011;8458;52.220;9.884;2022-07-29T14:21:39;2.85;;;2.33;;
16689;SDS011;8458;52.220;9.884;2022-07-29T14:24:06;2.30;;;2.10;;
16689;SDS011;8458;52.220;9.884;2022-07-29T14:26:32;2.40;;;2.20;;
16689;SDS011;8458;52.220;9.884;2022-07-29T14:28:59;2.60;;;2.40;;
16689;SDS011;8458;52.220;9.884;2022-07-29T14:31:27;2.63;;;1.80;;
16689;SDS011;8458;52.220;9.884;2022-07-29T14:33:53;3.55;;;2.08;;
16689;SDS011;8458;52.220;9.884;2022-07-29T14:36:20;2.28;;;2.08;;
16689;SDS011;8458;52.220;9.884;2022-07-29T14:38:46;1.92;;;1.80;;
16689;SDS011;8458;52.220;9.884;2022-07-29T14:41:13;1.85;;;1.55;;
16689;SDS011;8458;52.220;9.884;2022-07-29T14:43:39;3.35;;;1.90;;
16689;SDS011;8458;52.220;9.884;2022-07-29T14:46:06;2.45;;;1.90;;
16689;SDS011;8458;52.220;9.884;2022-07-29T14:48:34;2.10;;;1.80;;
16689;SDS011;8458;52.220;9.884;2022-07-29T14:51:01;2.33;;;1.67;;
16689;SDS011;8458;52.220;9.884;2022-07-29T14:53:27;2.45;;;1.75;;
16689;SDS011;8458;52.220;9.884;2022-07-29T14:55:53;2.95;;;1.50;;
16689;SDS011;8458;52.220;9.884;2022-07-29T14:58:20;2.10;;;1.70;;
16689;SDS011;8458;52.220;9.884;2022-07-29T15:00:47;2.15;;;1.77;;
16689;SDS011;8458;52.220;9.884;2022-07-29T15:03:14;2.72;;;1.92;;
16689;SDS011;8458;52.220;9.884;2022-07-29T15:05:42;1.83;;;1.65;;
16689;SDS011;8458;52.220;9.884;2022-07-29T15:08:08;2.90;;;1.80;;
16689;SDS011;8458;52.220;9.884;2022-07-29T15:10:35;1.88;;;1.70;;
16689;SDS011;8458;52.220;9.884;2022-07-29T15:13:01;1.90;;;1.75;;
16689;SDS011;8458;52.220;9.884;2022-07-29T15:15:28;2.58;;;1.50;;
16689;SDS011;8458;52.220;9.884;2022-07-29T15:17:54;2.80;;;1.45;;
16689;SDS011;8458;52.220;9.884;2022-07-29T15:20:21;2.10;;;1.80;;
16689;SDS011;8458;52.220;9.884;2022-07-29T15:22:51;2.88;;;1.80;;
16689;SDS011;8458;52.220;9.884;2022-07-29T15:25:18;1.83;;;1.70;;
16689;SDS011;8458;52.220;9.884;2022-07-29T15:27:44;1.75;;;1.50;;